createdAt,value
2023-08-11T00:03:42.928Z,3.47
2023-08-11T00:08:46.029Z,4.17
2023-08-11T00:13:49.474Z,4.07
2023-08-11T00:18:52.616Z,4.07
2023-08-11T00:23:55.767Z,3.63
2023-08-11T00:28:59.093Z,4.30
2023-08-11T00:34:02.691Z,4.47
2023-08-11T00:39:05.668Z,4.13
2023-08-11T00:44:08.745Z,6.30
2023-08-11T00:49:12.213Z,6.27
2023-08-11T00:54:16.734Z,7.53
2023-08-11T00:59:23.228Z,7.93
2023-08-11T01:04:26.617Z,7.73
2023-08-11T01:09:32.663Z,7.03
2023-08-11T01:14:43.051Z,7.93
2023-08-11T01:19:46.939Z,6.37
2023-08-11T01:24:50.505Z,7.30
2023-08-11T01:29:53.535Z,6.93
2023-08-11T01:34:56.837Z,6.77
2023-08-11T01:40:00.015Z,6.53
2023-08-11T01:45:03.441Z,5.87
2023-08-11T01:50:08.348Z,4.90
2023-08-11T01:55:11.997Z,3.17
2023-08-11T02:00:15.554Z,4.83
2023-08-11T02:05:19.274Z,4.77
2023-08-11T02:10:22.494Z,3.33
2023-08-11T02:15:25.604Z,4.57
2023-08-11T02:20:31.038Z,5.90
2023-08-11T02:25:34.130Z,4.50
2023-08-11T02:30:37.676Z,5.07
2023-08-11T02:35:40.842Z,6.20
2023-08-11T02:40:44.315Z,5.67
2023-08-11T02:45:48.132Z,5.33
2023-08-11T02:50:51.312Z,5.07
2023-08-11T02:55:54.446Z,6.60
2023-08-11T03:00:59.575Z,5.40
2023-08-11T03:06:03.098Z,5.30
2023-08-11T03:11:06.247Z,5.97
2023-08-11T03:16:09.368Z,7.93
2023-08-11T03:21:20.011Z,8.67
2023-08-11T03:26:24.367Z,6.50
2023-08-11T03:31:28.148Z,5.80
2023-08-11T03:36:31.159Z,5.53
2023-08-11T03:41:34.146Z,5.63
2023-08-11T03:46:37.405Z,4.77
2023-08-11T03:51:40.700Z,4.97
2023-08-11T03:56:45.198Z,4.43
2023-08-11T04:01:48.167Z,5.23
2023-08-11T04:06:53.464Z,3.13
2023-08-11T04:11:56.644Z,3.30
2023-08-11T04:16:59.859Z,4.20
2023-08-11T04:22:02.925Z,3.80
2023-08-11T04:27:06.555Z,4.23
2023-08-11T04:32:09.807Z,4.07
2023-08-11T04:37:13.011Z,4.67
2023-08-11T04:42:16.171Z,5.60
2023-08-11T04:47:19.632Z,4.43
2023-08-11T04:52:23.339Z,4.80
2023-08-11T04:57:26.454Z,4.30
2023-08-11T05:02:29.598Z,4.77
2023-08-11T05:07:32.734Z,5.17
2023-08-11T05:12:35.959Z,5.87
2023-08-11T05:17:39.163Z,5.07
2023-08-11T05:22:42.584Z,5.60
2023-08-11T05:27:46.722Z,6.60
2023-08-11T05:32:49.893Z,5.37
2023-08-11T05:37:53.122Z,5.83
2023-08-11T05:42:56.271Z,5.50
2023-08-11T05:48:00.127Z,6.07
2023-08-11T05:53:04.260Z,5.80
2023-08-11T05:58:07.862Z,6.07
2023-08-11T06:03:11.231Z,5.70
2023-08-11T06:08:14.740Z,7.17
2023-08-11T06:13:17.954Z,6.77
2023-08-11T06:18:21.605Z,7.57
2023-08-11T06:23:27.500Z,6.37
2023-08-11T06:28:31.699Z,6.90
2023-08-11T06:33:34.872Z,6.77
2023-08-11T06:38:38.129Z,5.80
2023-08-11T06:43:41.525Z,5.97
2023-08-11T06:48:44.971Z,5.50
2023-08-11T06:53:48.231Z,5.25
2023-08-11T06:58:52.554Z,4.82
2023-08-11T07:03:55.903Z,4.30
2023-08-11T07:08:59.632Z,3.88
2023-08-11T07:14:03.670Z,3.70
2023-08-11T07:19:07.278Z,2.53
2023-08-11T07:24:11.684Z,3.00
2023-08-11T07:29:15.597Z,3.10
2023-08-11T07:34:19.400Z,2.28
2023-08-11T07:39:24.370Z,1.70
2023-08-11T07:44:29.382Z,1.75
2023-08-11T07:49:35.598Z,1.60
2023-08-11T07:54:38.884Z,1.42
2023-08-11T07:59:42.189Z,0.93
2023-08-11T08:04:45.587Z,0.85
2023-08-11T08:09:49.206Z,1.30
2023-08-11T08:14:52.450Z,1.52
2023-08-11T08:19:56.304Z,2.05
2023-08-11T08:24:59.562Z,1.35
2023-08-11T08:30:06.331Z,1.35
2023-08-11T08:35:11.274Z,0.98
2023-08-11T08:40:14.580Z,1.00
2023-08-11T08:45:19.986Z,1.45
2023-08-11T08:50:24.865Z,1.27
2023-08-11T08:55:28.413Z,1.20
2023-08-11T09:00:32.609Z,1.15
2023-08-11T09:05:36.560Z,1.65
2023-08-11T09:10:39.891Z,1.30
2023-08-11T09:15:43.979Z,0.85
2023-08-11T09:20:48.770Z,1.20
2023-08-11T09:25:55.824Z,1.42
2023-08-11T09:30:59.050Z,1.30
2023-08-11T09:36:02.421Z,1.10
2023-08-11T09:41:10.269Z,1.05
2023-08-11T09:52:26.404Z,1.52
2023-08-11T09:57:29.959Z,1.15
2023-08-11T10:02:35.376Z,1.00
2023-08-11T10:07:43.715Z,1.08
2023-08-11T10:12:53.383Z,1.50
2023-08-11T10:17:56.590Z,1.20
2023-08-11T10:23:02.720Z,0.98
2023-08-11T10:28:08.700Z,1.02
2023-08-11T10:33:12.118Z,1.10
2023-08-11T10:38:26.278Z,0.80
2023-08-11T10:43:32.847Z,0.85
2023-08-11T10:48:36.387Z,0.73
2023-08-11T10:53:57.111Z,1.05
2023-08-11T10:59:16.726Z,1.13
2023-08-11T11:04:22.958Z,1.15
2023-08-11T11:09:29.536Z,0.85
2023-08-11T11:14:32.929Z,1.30
2023-08-11T11:19:37.316Z,1.08
2023-08-11T11:24:40.367Z,0.98
2023-08-11T11:29:43.560Z,1.33
2023-08-11T11:34:47.165Z,0.88
2023-08-11T11:39:50.455Z,1.02
2023-08-11T11:44:53.948Z,0.90
2023-08-11T11:50:06.049Z,0.80
2023-08-11T11:55:09.412Z,0.70
2023-08-11T12:00:20.271Z,1.02
2023-08-11T12:05:23.584Z,1.20
2023-08-11T12:10:36.000Z,1.05
2023-08-11T12:15:39.138Z,0.88
2023-08-11T12:20:42.802Z,1.00
2023-08-11T12:25:46.355Z,0.80
2023-08-11T12:30:50.466Z,1.10
2023-08-11T12:35:53.666Z,0.90
2023-08-11T12:40:56.996Z,0.95
2023-08-11T12:46:00.898Z,0.80
2023-08-11T12:51:04.376Z,0.98
2023-08-11T12:56:08.071Z,1.23
2023-08-11T13:01:11.921Z,1.08
2023-08-11T13:06:15.686Z,0.90
2023-08-11T13:11:20.522Z,1.10
2023-08-11T13:16:23.818Z,1.33
2023-08-11T13:21:27.455Z,1.15
2023-08-11T13:26:30.779Z,1.00
2023-08-11T13:31:34.020Z,0.93
2023-08-11T13:36:37.352Z,1.00
2023-08-11T13:41:41.904Z,1.10
2023-08-11T13:46:45.310Z,1.13
2023-08-11T13:51:49.014Z,1.10
2023-08-11T13:56:52.843Z,1.25
2023-08-11T14:01:56.880Z,1.10
2023-08-11T14:07:13.953Z,1.13
2023-08-11T14:12:23.422Z,0.82
2023-08-11T14:17:26.710Z,1.15
2023-08-11T14:22:29.878Z,1.25
2023-08-11T14:27:33.615Z,1.33
2023-08-11T14:32:36.992Z,1.35
2023-08-11T14:37:40.288Z,1.13
2023-08-11T14:42:43.503Z,1.15
2023-08-11T14:47:46.797Z,0.90
2023-08-11T14:52:51.199Z,1.00
2023-08-11T14:57:55.732Z,1.00
2023-08-11T15:02:59.453Z,1.20
2023-08-11T15:08:02.863Z,1.20
2023-08-11T15:13:06.343Z,1.30
2023-08-11T15:18:09.527Z,1.20
2023-08-11T15:23:12.968Z,1.13
2023-08-11T15:28:16.153Z,1.00
2023-08-11T15:33:19.452Z,2.72
2023-08-11T15:38:22.953Z,1.42
2023-08-11T15:43:26.115Z,1.10
2023-08-11T15:48:30.605Z,1.30
2023-08-11T15:53:33.879Z,1.40
2023-08-11T15:58:38.843Z,1.10
2023-08-11T16:03:42.374Z,1.00
2023-08-11T16:08:45.693Z,1.27
2023-08-11T16:13:48.816Z,1.00
2023-08-11T16:18:52.177Z,1.48
2023-08-11T16:23:55.449Z,1.23
2023-08-11T16:28:58.662Z,1.42
2023-08-11T16:34:01.975Z,1.00
2023-08-11T16:39:06.667Z,1.05
2023-08-11T16:44:11.157Z,1.38
2023-08-11T16:49:14.535Z,1.70
2023-08-11T16:54:19.536Z,1.10
2023-08-11T16:59:23.066Z,1.00
2023-08-11T17:04:26.606Z,0.98
2023-08-11T17:09:29.656Z,1.08
2023-08-11T17:14:32.859Z,0.90
2023-08-11T17:19:36.399Z,0.93
2023-08-11T17:24:40.052Z,1.25
2023-08-11T17:29:46.288Z,1.10
2023-08-11T17:34:57.720Z,1.08
2023-08-11T17:40:01.845Z,1.30
2023-08-11T17:45:05.579Z,1.40
2023-08-11T17:50:08.916Z,1.17
2023-08-11T17:55:12.187Z,2.10
2023-08-11T18:00:16.429Z,1.20
2023-08-11T18:05:19.584Z,1.20
2023-08-11T18:10:22.751Z,1.30
2023-08-11T18:15:25.845Z,1.73
2023-08-11T18:20:29.310Z,1.20
2023-08-11T18:25:32.477Z,1.30
2023-08-11T18:30:35.708Z,2.90
2023-08-11T18:35:39.001Z,1.55
2023-08-11T18:40:42.750Z,1.52
2023-08-11T18:45:46.327Z,1.77
2023-08-11T18:50:49.777Z,2.35
2023-08-11T18:55:55.818Z,1.73
2023-08-11T19:00:59.461Z,2.00
2023-08-11T19:06:02.996Z,2.53
2023-08-11T19:11:06.628Z,1.85
2023-08-11T19:16:09.819Z,2.00
2023-08-11T19:21:13.295Z,2.38
2023-08-11T19:26:18.040Z,2.40
2023-08-11T19:31:21.497Z,3.35
2023-08-11T19:36:25.513Z,3.13
2023-08-11T19:41:29.039Z,4.15
2023-08-11T19:46:32.901Z,4.15
2023-08-11T19:51:37.883Z,5.13
2023-08-11T19:56:44.945Z,6.22
2023-08-11T20:01:50.118Z,5.28
2023-08-11T20:06:53.826Z,4.53
2023-08-11T20:11:58.726Z,4.95
2023-08-11T20:17:04.776Z,5.88
2023-08-11T20:22:08.463Z,5.97
2023-08-11T20:27:13.257Z,4.18
2023-08-11T20:32:16.872Z,4.90
2023-08-11T20:37:22.855Z,4.13
2023-08-11T20:42:26.113Z,4.45
2023-08-11T20:47:29.562Z,6.10
2023-08-11T20:52:32.835Z,4.63
2023-08-11T20:57:36.060Z,5.33
2023-08-11T21:02:39.333Z,4.67
2023-08-11T21:07:42.702Z,4.90
2023-08-11T21:12:45.952Z,4.73
2023-08-11T21:17:49.713Z,4.07
2023-08-11T21:22:52.780Z,4.03
2023-08-11T21:27:57.745Z,4.73
2023-08-11T21:33:01.218Z,4.53
2023-08-11T21:38:04.986Z,3.57
2023-08-11T21:43:10.257Z,4.20
2023-08-11T21:48:13.454Z,4.23
2023-08-11T21:53:23.010Z,4.00
2023-08-11T21:58:27.064Z,3.73
2023-08-11T22:03:30.284Z,3.40
2023-08-11T22:08:33.447Z,3.90
2023-08-11T22:13:36.565Z,3.67
2023-08-11T22:18:39.852Z,3.73
2023-08-11T22:23:42.854Z,4.97
2023-08-11T22:28:46.012Z,3.80
2023-08-11T22:33:49.116Z,3.97
2023-08-11T22:38:52.297Z,4.73
2023-08-11T22:43:55.295Z,4.03
2023-08-11T22:48:58.286Z,4.73
2023-08-11T22:54:01.363Z,4.70
2023-08-11T22:59:05.655Z,3.80
2023-08-11T23:04:08.780Z,4.50
2023-08-11T23:09:12.437Z,4.60
2023-08-11T23:14:15.586Z,5.40
2023-08-11T23:19:18.734Z,5.03
2023-08-11T23:24:21.864Z,5.60
2023-08-11T23:29:25.045Z,5.70
2023-08-11T23:34:28.165Z,5.60
2023-08-11T23:39:34.877Z,4.80
2023-08-11T23:44:38.251Z,5.07
2023-08-11T23:49:41.441Z,5.47
2023-08-11T23:54:53.777Z,4.90
2023-08-11T23:59:56.805Z,4.90
